Time;durP1;ratioP1;P1;durP2;ratioP2;P2;SDS_P1;SDS_P2;PMS_P1;PMS_P2;Temp;Humidity;BMP_temperature;BMP_pressure;BME280_temperature;BME280_humidity;BME280_pressure;Samples;Min_cycle;Max_cycle;Signal;HPM_P1;HPM_P2
2022/07/18 00:01:21;;;;;;;3.15;0.55;;;14.10;99.90;;;;;;5092352;28;20111;-74
2022/07/18 00:03:48;;;;;;;1.83;0.40;;;14.00;99.90;;;;;;5092085;28;20027;-74
2022/07/18 00:06:16;;;;;;;2.13;0.68;;;14.10;99.90;;;;;;5093666;28;20023;-74
2022/07/18 00:08:43;;;;;;;1.63;0.47;;;14.10;99.90;;;;;;5092363;28;20024;-74
2022/07/18 00:11:11;;;;;;;2.60;0.50;;;14.10;99.90;;;;;;5094408;28;20073;-75
2022/07/18 00:13:38;;;;;;;2.13;0.55;;;14.20;99.70;;;;;;5093791;28;20024;-74
2022/07/18 00:16:06;;;;;;;1.80;0.70;;;14.10;99.40;;;;;;5094082;28;20027;-74
2022/07/18 00:18:33;;;;;;;3.17;0.60;;;14.20;99.90;;;;;;5092304;28;20049;-74
2022/07/18 00:21:00;;;;;;;2.25;0.50;;;14.20;99.50;;;;;;5093244;28;20022;-74
2022/07/18 00:23:28;;;;;;;1.75;0.65;;;14.20;99.00;;;;;;5093654;28;20495;-74
2022/07/18 00:25:55;;;;;;;0.93;0.55;;;14.20;98.70;;;;;;5092162;28;20557;-74
2022/07/18 00:28:23;;;;;;;1.25;0.40;;;14.20;98.40;;;;;;5091838;28;20028;-74
2022/07/18 00:30:50;;;;;;;1.50;0.30;;;14.20;98.30;;;;;;5092005;28;20030;-73
2022/07/18 00:33:17;;;;;;;4.57;0.60;;;14.20;98.50;;;;;;5092059;28;20123;-76
2022/07/18 00:35:45;;;;;;;0.95;0.45;;;14.30;98.70;;;;;;5093610;28;20070;-77
2022/07/18 00:38:12;;;;;;;1.25;0.30;;;14.40;98.40;;;;;;5092223;28;20407;-75
2022/07/18 00:40:40;;;;;;;1.27;0.17;;;14.40;98.50;;;;;;5093938;28;20460;-76
2022/07/18 00:43:07;;;;;;;1.50;0.43;;;14.30;97.50;;;;;;5093035;28;20016;-73
2022/07/18 00:45:35;;;;;;;3.03;0.50;;;14.20;97.00;;;;;;5095945;28;20095;-77
2022/07/18 00:48:07;;;;;;;1.85;0.50;;;14.30;97.70;;;;;;5095540;28;20139;-76
2022/07/18 00:50:34;;;;;;;2.95;0.70;;;14.10;97.60;;;;;;5097478;28;20048;-77
2022/07/18 00:53:02;;;;;;;3.42;0.70;;;14.20;98.00;;;;;;5095091;28;20028;-77
2022/07/18 00:55:29;;;;;;;2.08;0.50;;;14.40;97.20;;;;;;5095258;28;20027;-75
2022/07/18 00:57:58;;;;;;;4.72;1.02;;;14.20;98.50;;;;;;5096300;28;20085;-75
2022/07/18 01:03:12;;;;;;;1.83;0.40;;;14.60;96.80;;;;;;5095930;28;20069;-74
2022/07/18 01:05:39;;;;;;;2.28;0.38;;;14.50;96.70;;;;;;5095818;28;20051;-75
2022/07/18 01:08:07;;;;;;;2.45;0.50;;;14.40;96.10;;;;;;5096181;28;20023;-75
2022/07/18 01:10:34;;;;;;;2.03;0.30;;;14.40;96.60;;;;;;5095628;28;20028;-74
2022/07/18 01:13:02;;;;;;;0.63;0.10;;;14.50;96.40;;;;;;5095798;28;20024;-73
2022/07/18 01:15:29;;;;;;;2.33;0.47;;;14.40;95.40;;;;;;5094336;28;20020;-75
2022/07/18 01:17:57;;;;;;;1.48;0.30;;;14.30;95.70;;;;;;5094520;28;20081;-75
2022/07/18 01:20:29;;;;;;;1.13;0.45;;;14.40;95.60;;;;;;5094237;28;20067;-75
2022/07/18 01:22:57;;;;;;;0.80;0.40;;;14.50;96.10;;;;;;5095762;28;20027;-75
2022/07/18 01:25:24;;;;;;;1.80;0.55;;;14.70;96.40;;;;;;5095407;28;20503;-74
2022/07/18 01:27:52;;;;;;;2.33;0.43;;;14.70;95.70;;;;;;5095852;28;20511;-75
2022/07/18 01:30:19;;;;;;;1.02;0.30;;;14.60;95.20;;;;;;5094382;28;20086;-74
2022/07/18 01:32:47;;;;;;;2.72;0.25;;;14.60;95.20;;;;;;5094355;28;20031;-75
2022/07/18 01:35:14;;;;;;;2.67;0.40;;;14.50;95.00;;;;;;5095352;28;20150;-74
2022/07/18 01:37:41;;;;;;;1.50;0.20;;;14.60;96.00;;;;;;5095480;28;20020;-73
2022/07/18 01:40:11;;;;;;;2.13;0.30;;;14.50;94.40;;;;;;5094017;28;20030;-75
2022/07/18 01:42:38;;;;;;;2.33;0.38;;;14.50;94.80;;;;;;5094226;28;20024;-75
2022/07/18 01:45:06;;;;;;;1.15;0.15;;;14.60;95.80;;;;;;5094043;28;20024;-76
2022/07/18 01:47:33;;;;;;;1.52;0.38;;;14.60;94.20;;;;;;5095151;28;20056;-76
2022/07/18 01:50:00;;;;;;;1.02;0.20;;;14.40;94.70;;;;;;5093740;28;20059;-76
2022/07/18 01:52:28;;;;;;;3.75;0.40;;;14.40;94.90;;;;;;5093919;28;20110;-76
2022/07/18 01:54:55;;;;;;;1.00;0.30;;;14.40;94.90;;;;;;5094874;28;20531;-75
2022/07/18 01:57:23;;;;;;;0.60;0.22;;;14.70;95.40;;;;;;5093705;28;20506;-75
2022/07/18 01:59:51;;;;;;;0.63;0.28;;;14.70;94.90;;;;;;5093691;28;20022;-74
2022/07/18 02:02:18;;;;;;;0.70;0.50;;;14.70;96.10;;;;;;5093512;28;20027;-72
2022/07/18 02:05:00;;;;;;;3.22;0.40;;;14.90;95.40;;;;;;5093779;28;20023;-74
2022/07/18 02:07:34;;;;;;;1.60;0.15;;;15.00;95.00;;;;;;5093675;28;20567;-74
2022/07/18 02:10:06;;;;;;;0.63;0.30;;;14.90;94.40;;;;;;5095065;28;20020;-75
2022/07/18 02:12:33;;;;;;;0.77;0.35;;;14.90;95.10;;;;;;5093555;28;20024;-74
2022/07/18 02:15:01;;;;;;;0.30;0.25;;;14.80;94.70;;;;;;5094708;28;20028;-75
2022/07/18 02:17:28;;;;;;;1.00;0.30;;;14.60;95.40;;;;;;5093222;28;20036;-75
2022/07/18 02:19:56;;;;;;;1.08;0.20;;;14.30;94.80;;;;;;5094635;28;20021;-75
2022/07/18 02:22:24;;;;;;;1.40;0.20;;;13.90;95.60;;;;;;5094344;28;20098;-75
2022/07/18 02:24:53;;;;;;;1.60;0.40;;;14.10;96.30;;;;;;5093085;28;20058;-74
2022/07/18 02:27:20;;;;;;;0.60;0.20;;;14.50;96.70;;;;;;5076750;28;20127;-75
2022/07/18 02:29:48;;;;;;;0.75;0.20;;;14.30;96.50;;;;;;5092889;28;20057;-75
2022/07/18 02:32:15;;;;;;;0.60;0.40;;;14.40;97.70;;;;;;5094151;28;20020;-75
2022/07/18 02:34:43;;;;;;;0.93;0.30;;;14.60;97.70;;;;;;5092987;28;20069;-75
2022/07/18 02:37:13;;;;;;;1.23;0.40;;;14.60;97.10;;;;;;5092768;28;20391;-76
2022/07/18 02:39:41;;;;;;;2.88;0.45;;;14.60;97.10;;;;;;5092956;28;20051;-75
2022/07/18 02:42:08;;;;;;;8.05;0.70;;;14.60;97.00;;;;;;5092983;28;20024;-75
2022/07/18 02:44:36;;;;;;;1.15;0.57;;;14.60;96.40;;;;;;5092992;28;20543;-76
2022/07/18 02:47:05;;;;;;;0.30;0.30;;;14.60;97.40;;;;;;5092502;28;20040;-76
2022/07/18 02:49:32;;;;;;;1.65;0.30;;;14.60;96.20;;;;;;5094252;28;20026;-75
2022/07/18 02:52:07;;;;;;;2.05;0.50;;;14.40;96.30;;;;;;5092547;28;20020;-76
2022/07/18 02:54:36;;;;;;;1.95;0.40;;;14.50;96.40;;;;;;5093971;28;20028;-76
2022/07/18 02:57:03;;;;;;;1.73;0.10;;;14.70;96.80;;;;;;5093556;28;20108;-75
2022/07/18 02:59:31;;;;;;;0.90;0.20;;;14.90;96.10;;;;;;5092497;28;20387;-75
2022/07/18 03:01:58;;;;;;;2.08;0.40;;;15.00;96.50;;;;;;5092982;28;20017;-76
2022/07/18 03:04:26;;;;;;;0.82;0.30;;;15.20;96.30;;;;;;5093703;28;20073;-75
2022/07/18 03:06:53;;;;;;;1.05;0.30;;;15.00;95.90;;;;;;5092078;28;20051;-76
2022/07/18 03:09:21;;;;;;;2.42;0.40;;;14.90;95.80;;;;;;5092400;28;20070;-76
2022/07/18 03:11:48;;;;;;;3.90;0.40;;;15.10;95.50;;;;;;5092974;28;20498;-75
2022/07/18 03:14:16;;;;;;;0.65;0.30;;;15.20;95.00;;;;;;5092439;28;20024;-75
2022/07/18 03:16:43;;;;;;;1.33;0.52;;;15.00;94.20;;;;;;5093616;28;20024;-75
2022/07/18 03:19:11;;;;;;;0.68;0.20;;;15.00;94.60;;;;;;5092141;28;20527;-74
2022/07/18 03:21:38;;;;;;;2.13;0.20;;;14.60;93.90;;;;;;5093503;28;20507;-74
2022/07/18 03:24:06;;;;;;;1.60;0.30;;;14.50;93.80;;;;;;5093357;28;20361;-75
2022/07/18 03:26:33;;;;;;;0.80;0.40;;;14.70;94.80;;;;;;5092227;28;20101;-75
2022/07/18 03:29:00;;;;;;;1.40;0.70;;;14.90;94.00;;;;;;5093365;28;20031;-74
2022/07/18 03:31:28;;;;;;;2.95;0.80;;;14.60;94.20;;;;;;5092319;28;20054;-74
2022/07/18 03:33:55;;;;;;;1.95;0.40;;;14.60;93.50;;;;;;5092054;28;20071;-74
2022/07/18 03:36:22;;;;;;;1.95;0.80;;;14.70;94.20;;;;;;5092080;28;20036;-75
2022/07/18 03:38:50;;;;;;;5.07;0.90;;;14.70;93.80;;;;;;5091800;28;20411;-74
2022/07/18 03:41:17;;;;;;;0.70;0.40;;;14.90;94.00;;;;;;5093240;28;20020;-74
2022/07/18 03:43:44;;;;;;;3.60;0.70;;;15.00;94.40;;;;;;5091864;28;20017;-73
2022/07/18 03:46:12;;;;;;;1.20;0.60;;;15.00;93.30;;;;;;5091845;28;20094;-73
2022/07/18 03:48:39;;;;;;;1.92;0.52;;;14.90;92.40;;;;;;5091719;28;20048;-74
2022/07/18 03:51:07;;;;;;;1.85;0.50;;;15.00;92.60;;;;;;5093234;28;20056;-75
2022/07/18 03:53:34;;;;;;;2.40;0.55;;;15.20;93.80;;;;;;5093812;28;20026;-76
2022/07/18 03:56:02;;;;;;;2.95;0.60;;;15.00;92.60;;;;;;5091967;28;20051;-77
2022/07/18 03:58:29;;;;;;;1.73;0.60;;;15.10;93.40;;;;;;5093258;28;20024;-77
2022/07/18 04:00:57;;;;;;;2.55;0.80;;;15.10;92.70;;;;;;5093360;28;20028;-77
2022/07/18 04:03:24;;;;;;;2.05;0.40;;;15.10;92.20;;;;;;5093277;28;20051;-76
2022/07/18 04:05:52;;;;;;;0.80;0.20;;;15.10;92.80;;;;;;5091947;28;20017;-76
2022/07/18 04:08:19;;;;;;;0.52;0.25;;;15.00;92.50;;;;;;5093178;28;20028;-75
2022/07/18 04:10:47;;;;;;;1.55;0.50;;;14.70;92.00;;;;;;5093299;28;20024;-76
2022/07/18 04:13:14;;;;;;;1.00;0.40;;;14.70;92.40;;;;;;5091890;28;20031;-76
2022/07/18 04:15:42;;;;;;;2.72;0.50;;;14.90;92.50;;;;;;5091934;28;20582;-77
2022/07/18 04:18:10;;;;;;;2.08;0.40;;;14.90;92.40;;;;;;5093119;28;20544;-76
2022/07/18 04:20:40;;;;;;;1.35;0.35;;;14.90;91.90;;;;;;5094526;28;20031;-76
2022/07/18 04:23:10;;;;;;;1.30;0.47;;;14.80;92.30;;;;;;5079477;28;20657;-77
2022/07/18 04:25:40;;;;;;;1.42;0.40;;;14.70;91.50;;;;;;5097101;28;20055;-76
2022/07/18 04:28:08;;;;;;;2.67;0.45;;;14.70;92.30;;;;;;5097012;28;20035;-76
2022/07/18 04:30:37;;;;;;;1.80;0.68;;;14.70;92.10;;;;;;5097093;28;20059;-75
2022/07/18 04:33:07;;;;;;;0.90;0.20;;;14.80;91.80;;;;;;5095553;28;20024;-74
2022/07/18 04:35:36;;;;;;;1.23;0.30;;;14.70;91.50;;;;;;5096927;28;20030;-78
2022/07/18 04:38:04;;;;;;;2.40;0.30;;;14.70;91.60;;;;;;5096576;28;20113;-75
2022/07/18 04:40:31;;;;;;;0.95;0.30;;;14.70;92.40;;;;;;5095240;28;20022;-75
2022/07/18 04:42:59;;;;;;;1.65;0.30;;;14.70;92.10;;;;;;5095606;28;20115;-76
2022/07/18 04:45:26;;;;;;;1.92;0.40;;;14.60;91.20;;;;;;5096629;28;20020;-76
2022/07/18 04:47:57;;;;;;;2.53;0.65;;;14.60;91.90;;;;;;5096579;28;20040;-75
2022/07/18 04:50:25;;;;;;;1.25;0.43;;;14.70;91.40;;;;;;5095133;28;20028;-76
2022/07/18 04:52:53;;;;;;;1.33;0.50;;;14.70;91.20;;;;;;5095128;28;20391;-76
2022/07/18 04:55:22;;;;;;;2.08;0.30;;;14.60;91.60;;;;;;5095108;28;20067;-76
2022/07/18 04:57:50;;;;;;;1.40;0.40;;;14.60;91.40;;;;;;5095192;28;20051;-75
2022/07/18 05:00:21;;;;;;;1.48;0.60;;;14.50;91.50;;;;;;5094845;28;20052;-75
2022/07/18 05:02:50;;;;;;;0.68;0.30;;;14.50;91.10;;;;;;5095310;28;20031;-76
2022/07/18 05:05:19;;;;;;;1.83;0.40;;;14.40;92.10;;;;;;5094664;28;20072;-76
2022/07/18 05:07:47;;;;;;;1.83;0.30;;;14.30;90.60;;;;;;5094735;28;20039;-76
2022/07/18 05:10:16;;;;;;;1.25;0.32;;;14.30;91.60;;;;;;5094840;28;20028;-76
2022/07/18 05:12:46;;;;;;;0.70;0.20;;;14.20;91.10;;;;;;5094876;28;20078;-76
2022/07/18 05:15:17;;;;;;;1.17;0.28;;;14.10;91.20;;;;;;5094854;28;20024;-77
2022/07/18 05:17:45;;;;;;;1.80;0.28;;;14.10;91.50;;;;;;5095115;28;20063;-76
2022/07/18 05:20:18;;;;;;;3.30;0.40;;;14.00;91.00;;;;;;5094760;28;20056;-76
2022/07/18 05:22:46;;;;;;;0.90;0.30;;;13.90;91.30;;;;;;5094812;28;20115;-77
2022/07/18 05:25:14;;;;;;;2.50;0.57;;;14.00;91.00;;;;;;5095792;28;20017;-76
2022/07/18 05:27:42;;;;;;;1.27;0.47;;;13.90;91.40;;;;;;5094305;28;20484;-76
2022/07/18 05:30:13;;;;;;;2.58;0.65;;;14.00;91.70;;;;;;5094013;28;20028;-77
2022/07/18 05:32:44;;;;;;;1.40;0.40;;;14.10;93.30;;;;;;5095730;28;20028;-80
2022/07/18 05:35:13;;;;;;;1.20;0.40;;;14.10;92.40;;;;;;5094103;28;20182;-73
2022/07/18 05:37:41;;;;;;;1.42;0.30;;;14.10;92.00;;;;;;5093800;28;20047;-78
2022/07/18 05:40:11;;;;;;;2.92;0.40;;;14.10;91.10;;;;;;5094377;28;20031;-74
2022/07/18 05:42:39;;;;;;;3.03;0.32;;;14.10;92.60;;;;;;5095168;28;20087;-78
2022/07/18 05:45:07;;;;;;;1.63;0.30;;;14.20;93.20;;;;;;5095767;28;20419;-75
2022/07/18 05:47:35;;;;;;;1.17;0.47;;;14.00;91.00;;;;;;5094483;28;20048;-75
2022/07/18 05:50:03;;;;;;;1.13;0.30;;;14.10;91.90;;;;;;5093785;28;20020;-78
2022/07/18 05:52:30;;;;;;;3.33;0.40;;;14.10;93.20;;;;;;5095602;28;20031;-76
2022/07/18 05:54:58;;;;;;;2.90;0.32;;;14.00;91.20;;;;;;5094170;28;20024;-75
2022/07/18 05:57:25;;;;;;;2.17;0.40;;;14.00;91.60;;;;;;5094831;28;20027;-75
2022/07/18 05:59:52;;;;;;;2.63;0.50;;;13.90;91.20;;;;;;5093869;28;20074;-74
2022/07/18 06:02:20;;;;;;;1.45;0.40;;;13.80;92.50;;;;;;5093458;28;20020;-75
2022/07/18 06:04:47;;;;;;;3.17;0.63;;;13.80;91.90;;;;;;5093724;28;20032;-75
2022/07/18 06:07:14;;;;;;;1.27;0.30;;;13.70;92.20;;;;;;5094805;28;20024;-75
2022/07/18 06:09:42;;;;;;;1.85;0.40;;;13.60;92.80;;;;;;5093498;28;20396;-75
2022/07/18 06:12:10;;;;;;;1.27;0.50;;;13.50;93.70;;;;;;5094683;28;20027;-75
2022/07/18 06:14:37;;;;;;;1.02;0.30;;;13.40;93.50;;;;;;5094607;28;20024;-74
2022/07/18 06:17:05;;;;;;;1.98;0.45;;;13.30;94.20;;;;;;5094581;28;20436;-75
2022/07/18 06:19:32;;;;;;;1.00;0.40;;;13.30;94.10;;;;;;5094555;28;20115;-73
2022/07/18 06:22:00;;;;;;;2.25;0.52;;;13.30;95.30;;;;;;5094701;28;20027;-75
2022/07/18 06:24:27;;;;;;;1.65;0.40;;;13.20;94.00;;;;;;5094492;28;20020;-73
2022/07/18 06:26:55;;;;;;;1.30;0.85;;;13.10;94.00;;;;;;5094415;28;20025;-74
2022/07/18 06:29:22;;;;;;;2.97;0.57;;;12.90;96.40;;;;;;5094470;28;20023;-74
2022/07/18 06:31:49;;;;;;;1.42;0.47;;;12.80;94.40;;;;;;5094450;28;20028;-75
2022/07/18 06:34:17;;;;;;;0.80;0.50;;;12.80;95.20;;;;;;5094897;28;20099;-76
2022/07/18 06:36:44;;;;;;;2.38;0.32;;;12.60;95.40;;;;;;5092945;28;20070;-75
2022/07/18 06:39:12;;;;;;;1.13;0.70;;;12.60;94.50;;;;;;5092897;28;20024;-75
2022/07/18 06:41:40;;;;;;;1.42;0.20;;;12.50;94.50;;;;;;5093885;28;20020;-75
2022/07/18 06:44:07;;;;;;;1.35;0.30;;;12.50;94.00;;;;;;5093793;28;20024;-75
2022/07/18 06:46:36;;;;;;;0.50;0.35;;;12.50;94.90;;;;;;5092661;28;20476;-76
2022/07/18 06:49:05;;;;;;;0.90;0.40;;;12.40;95.60;;;;;;5094304;28;20117;-75
2022/07/18 06:51:32;;;;;;;1.13;0.30;;;12.20;95.20;;;;;;5092636;28;20060;-75
2022/07/18 06:54:00;;;;;;;2.63;0.47;;;12.20;95.00;;;;;;5092484;28;20503;-75
2022/07/18 06:56:27;;;;;;;1.90;0.55;;;12.10;96.00;;;;;;5093867;28;20049;-75
2022/07/18 06:58:55;;;;;;;1.75;0.30;;;12.00;96.00;;;;;;5093569;28;20023;-75
2022/07/18 07:01:23;;;;;;;2.38;0.55;;;12.00;95.70;;;;;;5092565;28;20051;-76
2022/07/18 07:03:50;;;;;;;1.30;0.40;;;11.90;96.80;;;;;;5093839;28;20021;-75
2022/07/18 07:06:18;;;;;;;2.42;0.50;;;11.80;96.30;;;;;;5094003;28;20099;-74
2022/07/18 07:08:45;;;;;;;3.40;0.90;;;11.70;97.50;;;;;;5092048;28;20028;-75
2022/07/18 07:11:13;;;;;;;2.17;0.63;;;11.60;96.70;;;;;;5093609;28;20042;-75
2022/07/18 07:13:40;;;;;;;1.52;0.65;;;11.60;96.80;;;;;;5092214;28;20031;-75
2022/07/18 07:16:08;;;;;;;4.72;0.60;;;11.60;96.60;;;;;;5093544;28;20111;-75
2022/07/18 07:18:35;;;;;;;1.83;0.60;;;11.70;95.90;;;;;;5091991;28;20028;-75
2022/07/18 07:21:03;;;;;;;3.38;1.13;;;11.60;96.90;;;;;;5093616;28;20054;-75
2022/07/18 07:23:30;;;;;;;1.75;0.77;;;11.60;96.50;;;;;;5092053;28;20026;-75
2022/07/18 07:25:58;;;;;;;2.72;0.90;;;11.50;97.00;;;;;;5093799;28;20024;-73
2022/07/18 07:28:25;;;;;;;2.45;1.08;;;11.50;96.60;;;;;;5092230;28;20081;-73
2022/07/18 07:30:53;;;;;;;1.60;0.73;;;11.40;97.10;;;;;;5093271;28;20430;-74
2022/07/18 07:33:20;;;;;;;4.20;0.70;;;11.30;96.80;;;;;;5092386;28;20481;-74
2022/07/18 07:35:47;;;;;;;3.47;0.70;;;11.40;96.50;;;;;;5093234;28;20062;-74
2022/07/18 07:38:18;;;;;;;3.13;0.77;;;11.40;97.40;;;;;;5093409;28;20174;-74
2022/07/18 07:40:47;;;;;;;1.80;0.68;;;11.30;97.60;;;;;;5092082;28;20403;-74
2022/07/18 07:43:16;;;;;;;3.90;0.98;;;11.20;96.90;;;;;;5093460;28;20027;-74
2022/07/18 07:45:48;;;;;;;1.98;0.70;;;11.20;97.40;;;;;;5093071;28;20016;-74
2022/07/18 07:48:16;;;;;;;2.22;0.98;;;11.10;98.30;;;;;;5093235;28;20055;-74
2022/07/18 07:50:44;;;;;;;2.17;1.27;;;11.10;98.00;;;;;;5091984;28;20041;-74
2022/07/18 07:53:12;;;;;;;2.00;0.60;;;11.00;98.10;;;;;;5092421;28;20024;-72
2022/07/18 07:55:39;;;;;;;2.72;0.70;;;11.00;97.60;;;;;;5097458;28;20027;-73
2022/07/18 07:58:06;;;;;;;2.38;1.02;;;11.00;98.20;;;;;;5097256;28;20120;-74
2022/07/18 08:00:34;;;;;;;3.83;1.08;;;11.10;99.10;;;;;;5097454;28;20472;-74
2022/07/18 08:03:04;;;;;;;2.33;0.75;;;11.00;97.80;;;;;;5096043;28;20024;-74
2022/07/18 08:05:35;;;;;;;3.07;0.97;;;10.90;98.80;;;;;;5096110;28;20024;-74
2022/07/18 08:08:03;;;;;;;1.77;0.80;;;10.90;98.80;;;;;;5097730;28;20024;-74
2022/07/18 08:10:31;;;;;;;1.55;0.98;;;10.90;98.00;;;;;;5097521;28;20379;-74
2022/07/18 08:12:59;;;;;;;3.10;0.90;;;10.80;98.90;;;;;;5097113;28;20028;-74
2022/07/18 08:15:26;;;;;;;2.00;0.70;;;10.70;98.30;;;;;;5097331;28;20016;-74
2022/07/18 08:17:54;;;;;;;2.67;0.80;;;10.70;98.30;;;;;;5095865;28;20043;-74
2022/07/18 08:20:22;;;;;;;3.42;0.80;;;10.60;98.50;;;;;;5097265;28;20058;-74
2022/07/18 08:23:11;;;;;;;1.55;0.75;;;10.70;98.90;;;;;;5097026;28;20095;-73
2022/07/18 08:25:41;;;;;;;3.40;1.45;;;10.60;99.50;;;;;;5095857;28;20020;-74
2022/07/18 08:28:13;;;;;;;2.00;0.83;;;10.60;99.30;;;;;;5097091;28;20024;-75
2022/07/18 08:30:41;;;;;;;3.72;0.82;;;10.50;99.20;;;;;;5097114;28;20028;-73
2022/07/18 08:33:09;;;;;;;3.72;0.93;;;10.50;99.90;;;;;;5096710;28;20077;-73
2022/07/18 08:35:38;;;;;;;2.47;1.10;;;10.50;98.80;;;;;;5096953;28;20035;-76
2022/07/18 08:38:06;;;;;;;2.03;0.88;;;10.50;99.30;;;;;;5095693;28;20035;-74
2022/07/18 08:40:35;;;;;;;2.35;1.08;;;10.50;99.10;;;;;;5095268;28;20434;-75
2022/07/18 08:43:13;;;;;;;3.28;1.38;;;10.50;99.00;;;;;;5095333;28;20078;-75
2022/07/18 08:45:43;;;;;;;3.28;1.17;;;10.50;99.20;;;;;;5097198;28;20024;-74
2022/07/18 08:48:13;;;;;;;2.92;1.25;;;10.70;99.90;;;;;;5096236;28;20096;-75
2022/07/18 08:50:47;;;;;;;2.70;1.00;;;10.70;99.90;;;;;;5095326;28;20039;-74
2022/07/18 08:53:16;;;;;;;3.97;1.27;;;10.60;99.80;;;;;;5095100;28;20024;-75
2022/07/18 08:55:44;;;;;;;3.75;1.23;;;10.60;99.10;;;;;;5096308;28;20016;-74
2022/07/18 08:58:14;;;;;;;2.25;1.05;;;10.50;99.40;;;;;;5096455;28;20060;-74
2022/07/18 09:00:42;;;;;;;2.83;1.00;;;10.40;99.30;;;;;;5095368;28;20028;-74
2022/07/18 09:03:09;;;;;;;2.80;1.27;;;10.40;99.50;;;;;;5095197;28;20016;-74
2022/07/18 09:05:37;;;;;;;2.97;1.52;;;10.30;99.60;;;;;;5095194;28;20569;-74
2022/07/18 09:08:22;;;;;;;2.85;1.40;;;10.30;99.60;;;;;;5094522;28;20388;-74
2022/07/18 09:10:57;;;;;;;5.03;1.75;;;10.30;99.90;;;;;;5094631;28;20077;-73
2022/07/18 09:13:38;;;;;;;1.95;0.77;;;10.20;99.90;;;;;;5094716;28;20024;-73
2022/07/18 09:16:08;;;;;;;2.88;1.10;;;10.20;99.70;;;;;;5095840;28;20452;-75
2022/07/18 09:18:42;;;;;;;2.55;1.10;;;10.20;99.90;;;;;;5094407;28;20396;-72
2022/07/18 09:21:23;;;;;;;3.53;1.08;;;10.10;99.90;;;;;;5094491;28;20510;-74
2022/07/18 09:23:52;;;;;;;3.28;1.20;;;10.10;99.90;;;;;;5095603;28;20503;-74
2022/07/18 09:26:43;;;;;;;1.98;1.00;;;10.10;99.90;;;;;;5094227;28;20512;-74
2022/07/18 09:29:16;;;;;;;2.53;1.10;;;10.10;99.90;;;;;;5095501;28;20035;-75
2022/07/18 09:31:54;;;;;;;10.38;1.42;;;10.00;99.90;;;;;;5095612;28;20024;-74
2022/07/18 09:34:39;;;;;;;1.52;0.82;;;10.10;99.90;;;;;;5094096;28;20111;-74
2022/07/18 09:37:12;;;;;;;2.17;0.90;;;10.10;99.90;;;;;;5095639;28;20369;-73
2022/07/18 09:39:39;;;;;;;3.90;1.60;;;10.10;99.90;;;;;;5094208;28;20020;-74
2022/07/18 09:42:18;;;;;;;1.98;1.10;;;10.10;99.90;;;;;;5094398;28;20484;-73
2022/07/18 09:45:07;;;;;;;2.22;0.98;;;10.10;99.90;;;;;;5094356;28;20020;-74
2022/07/18 09:47:53;;;;;;;2.80;1.52;;;10.10;99.90;;;;;;5094108;28;20105;-75
2022/07/18 09:50:40;;;;;;;2.22;0.98;;;10.00;99.90;;;;;;5095590;28;20077;-75
2022/07/18 09:53:32;;;;;;;2.60;1.08;;;10.10;99.90;;;;;;5094266;28;20034;-75
2022/07/18 09:56:04;;;;;;;1.58;0.93;;;10.10;99.90;;;;;;5095392;28;20027;-76
2022/07/18 09:58:39;;;;;;;1.77;1.00;;;10.00;99.90;;;;;;5093794;28;20032;-75
2022/07/18 10:01:09;;;;;;;3.88;1.10;;;10.00;99.90;;;;;;5093960;28;20028;-75
2022/07/18 10:03:39;;;;;;;2.72;1.25;;;10.00;99.90;;;;;;5094948;28;20069;-76
2022/07/18 10:06:06;;;;;;;2.80;1.45;;;10.00;99.90;;;;;;5093651;28;20024;-76
2022/07/18 10:08:35;;;;;;;2.75;1.20;;;10.00;99.90;;;;;;5095066;28;20016;-76
2022/07/18 10:11:07;;;;;;;2.88;1.00;;;9.90;99.90;;;;;;5094794;28;20467;-75
2022/07/18 10:13:36;;;;;;;2.80;1.40;;;9.90;99.90;;;;;;5093764;28;20024;-75
2022/07/18 10:16:05;;;;;;;2.95;1.40;;;9.90;99.90;;;;;;5093669;28;20333;-75
2022/07/18 10:18:36;;;;;;;3.15;1.50;;;9.90;99.90;;;;;;5092358;28;20024;-74
2022/07/18 10:21:06;;;;;;;4.15;1.15;;;9.90;99.90;;;;;;5094881;28;20357;-75
2022/07/18 10:23:53;;;;;;;3.25;1.15;;;10.00;99.90;;;;;;5093145;28;20032;-76
2022/07/18 10:26:23;;;;;;;4.22;1.30;;;9.80;99.90;;;;;;5094488;28;20081;-76
2022/07/18 10:29:00;;;;;;;2.05;1.10;;;9.80;99.90;;;;;;5094904;28;20472;-76
2022/07/18 10:31:29;;;;;;;2.60;1.10;;;9.80;99.90;;;;;;5094405;28;20028;-77
2022/07/18 10:34:10;;;;;;;4.22;1.50;;;9.70;99.90;;;;;;5094213;28;20508;-74
2022/07/18 10:36:51;;;;;;;3.72;1.38;;;9.80;99.90;;;;;;5093104;28;20072;-76
2022/07/18 10:39:24;;;;;;;;;;;9.80;99.90;;;;;;5093623;28;20029;-75
2022/07/18 10:41:54;;;;;;;3.50;1.75;;;9.70;99.90;;;;;;5093231;28;19912;-75
2022/07/18 10:44:24;;;;;;;4.05;1.85;;;9.70;99.90;;;;;;5092850;28;20028;-75
2022/07/18 10:47:05;;;;;;;6.28;2.20;;;9.60;99.90;;;;;;5094429;28;20036;-78
2022/07/18 10:49:48;;;;;;;4.00;1.98;;;9.50;99.90;;;;;;5094626;28;20020;-76
2022/07/18 10:52:27;;;;;;;3.70;2.20;;;9.50;99.90;;;;;;5093185;28;20021;-76
2022/07/18 10:55:08;;;;;;;6.18;2.60;;;9.50;99.90;;;;;;5094960;28;20361;-76
2022/07/18 10:58:02;;;;;;;5.28;2.22;;;9.40;99.90;;;;;;5092973;28;20024;-76
2022/07/18 11:00:37;;;;;;;3.00;2.08;;;9.40;99.90;;;;;;5094354;28;20028;-77
2022/07/18 11:03:10;;;;;;;3.60;2.17;;;9.40;99.90;;;;;;5093301;28;20073;-76
2022/07/18 11:05:43;;;;;;;3.08;1.75;;;9.40;99.90;;;;;;5094642;28;20046;-75
2022/07/18 11:08:14;;;;;;;4.05;1.90;;;9.30;99.90;;;;;;5094315;28;20051;-75
2022/07/18 11:10:45;;;;;;;2.63;1.30;;;9.30;99.90;;;;;;5093104;28;20020;-76
2022/07/18 11:13:48;;;;;;;3.58;1.42;;;9.30;99.90;;;;;;5093102;28;20044;-77
2022/07/18 11:16:19;;;;;;;3.08;1.25;;;9.20;99.90;;;;;;5093534;28;20028;-79
2022/07/18 11:18:48;;;;;;;5.10;1.25;;;9.20;99.90;;;;;;5094811;28;20028;-76
2022/07/18 11:21:29;;;;;;;2.92;1.40;;;9.20;99.90;;;;;;5092736;28;20047;-76
2022/07/18 11:24:09;;;;;;;2.42;1.08;;;9.20;99.90;;;;;;5094743;28;20446;-75
2022/07/18 11:26:39;;;;;;;3.15;1.05;;;9.20;99.90;;;;;;5093087;28;20023;-75
2022/07/18 11:29:12;;;;;;;1.52;0.80;;;9.20;99.90;;;;;;5093869;28;20535;-75
2022/07/18 11:31:55;;;;;;;1.75;0.60;;;9.20;99.90;;;;;;5094058;28;20032;-75
2022/07/18 11:34:23;;;;;;;2.05;1.23;;;9.30;99.90;;;;;;5092652;28;20040;-76
2022/07/18 11:36:51;;;;;;;1.15;0.70;;;9.30;99.90;;;;;;5092977;28;20020;-76
2022/07/18 11:39:32;;;;;;;2.50;0.80;;;9.30;99.90;;;;;;5094006;28;20481;-77
2022/07/18 11:42:01;;;;;;;2.58;1.15;;;9.30;99.90;;;;;;5093048;28;20024;-78
2022/07/18 11:44:29;;;;;;;3.22;0.70;;;9.30;99.90;;;;;;5092854;28;20028;-76
2022/07/18 11:47:07;;;;;;;2.20;0.95;;;9.20;99.90;;;;;;5093822;28;20079;-78
2022/07/18 11:49:56;;;;;;;2.45;0.98;;;9.20;99.90;;;;;;5091586;27;20402;-77
2022/07/18 11:52:24;;;;;;;3.00;1.10;;;9.20;99.90;;;;;;5089992;28;20141;-78
2022/07/18 11:54:51;;;;;;;3.90;1.27;;;9.10;99.90;;;;;;5091077;28;20555;-77
2022/07/18 11:57:29;;;;;;;3.42;1.10;;;9.10;99.90;;;;;;5091520;28;20020;-77
2022/07/18 11:59:56;;;;;;;3.22;1.02;;;9.10;99.90;;;;;;5090276;28;20028;-76
2022/07/18 12:03:00;;;;;;;96.55;56.97;;;9.10;99.90;;;;;;5091575;28;20052;-77
2022/07/18 12:05:48;;;;;;;5.45;2.35;;;9.10;99.90;;;;;;5089865;28;20109;-77
2022/07/18 12:08:35;;;;;;;1.77;1.05;;;9.20;99.90;;;;;;5090095;28;20039;-78
2022/07/18 12:11:20;;;;;;;2.67;1.20;;;9.20;99.90;;;;;;5089410;28;20384;-77
2022/07/18 12:13:57;;;;;;;2.20;0.95;;;9.30;99.90;;;;;;5089363;28;20426;-77
2022/07/18 12:16:32;;;;;;;4.65;1.67;;;9.30;99.90;;;;;;5090546;28;20028;-76
2022/07/18 12:19:08;;;;;;;1.40;0.98;;;9.30;99.90;;;;;;5089364;28;20437;-75
2022/07/18 12:22:04;;;;;;;3.30;1.10;;;9.40;99.90;;;;;;5090449;28;20043;-75
2022/07/18 12:24:50;;;;;;;2.67;1.00;;;9.40;99.90;;;;;;5090851;28;20024;-76
2022/07/18 12:27:19;;;;;;;2.42;0.80;;;9.40;99.90;;;;;;5089058;28;20376;-76
2022/07/18 12:30:11;;;;;;;2.53;1.00;;;9.50;99.90;;;;;;5089208;28;20028;-77
2022/07/18 12:32:43;;;;;;;2.72;1.08;;;9.50;99.90;;;;;;5089372;28;20031;-77
2022/07/18 12:35:31;;;;;;;3.65;1.40;;;9.50;99.90;;;;;;5090330;28;20117;-76
2022/07/18 12:38:10;;;;;;;4.13;1.20;;;9.50;99.90;;;;;;5090268;28;20472;-76
2022/07/18 12:40:52;;;;;;;2.78;1.10;;;9.50;99.90;;;;;;5090152;28;20028;-76
2022/07/18 12:43:33;;;;;;;2.05;0.90;;;9.60;99.90;;;;;;5088979;28;20054;-75
2022/07/18 12:46:03;;;;;;;1.63;0.80;;;9.60;99.90;;;;;;5090454;28;20094;-76
2022/07/18 12:48:32;;;;;;;3.17;1.00;;;9.60;99.90;;;;;;5090030;28;20044;-76
2022/07/18 12:51:06;;;;;;;2.17;0.95;;;9.60;99.90;;;;;;5088795;28;20123;-77
2022/07/18 12:53:35;;;;;;;3.70;1.02;;;9.60;99.90;;;;;;5090666;28;20384;-77
2022/07/18 12:56:04;;;;;;;2.33;1.00;;;9.60;99.90;;;;;;5088878;28;20028;-76
2022/07/18 12:58:31;;;;;;;2.72;0.90;;;9.60;99.90;;;;;;5088723;28;20126;-76
2022/07/18 13:01:00;;;;;;;2.35;0.80;;;9.60;99.90;;;;;;5077365;28;20021;-75
2022/07/18 13:03:27;;;;;;;1.98;0.70;;;9.50;99.90;;;;;;5076136;28;20035;-75
2022/07/18 13:05:54;;;;;;;2.85;0.80;;;9.50;99.90;;;;;;5074944;28;20077;-77
2022/07/18 13:08:23;;;;;;;3.97;1.40;;;9.50;99.90;;;;;;5075913;28;20024;-74
2022/07/18 13:10:50;;;;;;;3.15;1.00;;;9.40;99.90;;;;;;5075962;28;20107;-75